Flight Track Log - Related Links

Times and Time Zones

All times are in EDT time to prevent confusion due to time zone crossing. See the USC105 flight status page for this flight to view local times or setup timezone preferences in your user account.

Time Position Orientation Groundspeed Altitude Reporting Facility
EDT Latitude Longitude Course Direction KTS MPH feet Rate Location/Type
Tue 09:58:07 PM 39.8197 -82.9219 17° North 137 158 900  Level Indianapolis Center
Tue 09:59:02 PM 39.8519 -82.9094 17° North 134 154 1,800 1,086 Climbing Indianapolis Center
Tue 10:00:03 PM 39.8875 -82.9081 North 134 154 3,000 1,082 Climbing Indianapolis Center
Tue 10:01:04 PM 39.9233 -82.9039 North 128 147 4,000 1,082 Climbing Indianapolis Center
Tue 10:02:05 PM 39.9603 -82.8864 20° North 140 161 5,200 1,091 Climbing Indianapolis Center
Tue 10:03:05 PM 39.9911 -82.8625 31° Northeast 131 151 6,200 893 Climbing Indianapolis Center
Tue 10:04:06 PM 40.0219 -82.8389 30° Northeast 129 148 7,000 353 Climbing Indianapolis Center
Tue 10:05:21 PM 40.0731 -82.7986 31° Northeast 170 196 7,000  Level Indianapolis Center
Tue 10:06:08 PM 40.1058 -82.7747 29° Northeast 177 204 7,000  Level Indianapolis Center
Tue 10:07:08 PM 40.1497 -82.7417 30° Northeast 182 209 7,000  Level Indianapolis Center
Tue 10:07:23 PM 40.1600 -82.7322 35° Northeast 184 212 7,000  Level Indianapolis Center
Tue 10:08:09 PM 40.1939 -82.7056 31° Northeast 190 219 7,000  Level Indianapolis Center
Tue 10:08:24 PM 40.2044 -82.6969 32° Northeast 184 212 7,000  Level Indianapolis Center
Tue 10:09:10 PM 40.2400 -82.6725 28° Northeast 188 216 7,000  Level Indianapolis Center
Tue 10:09:26 PM 40.2497 -82.6628 37° Northeast 187 215 7,000  Level Indianapolis Center
Tue 10:10:27 PM 40.2950 -82.6281 30° Northeast 188 216 7,000  Level Indianapolis Center
Tue 10:11:28 PM 40.3406 -82.5942 30° Northeast 187 215 7,000  Level Indianapolis Center
Tue 10:12:29 PM 40.3869 -82.5592 30° Northeast 190 219 7,000  Level Indianapolis Center
Tue 10:13:31 PM 40.4331 -82.5233 31° Northeast 191 220 7,000  Level Indianapolis Center
Tue 10:14:32 PM 40.4800 -82.4883 30° Northeast 193 222 7,000  Level Indianapolis Center
Tue 10:15:33 PM 40.5253 -82.4525 31° Northeast 190 219 7,000  Level Indianapolis Center
Tue 10:16:34 PM 40.5711 -82.4150 32° Northeast 190 219 7,000 -49 Level Indianapolis Center
Tue 10:17:35 PM 40.6169 -82.3800 30° Northeast 190 219 6,900 -443 Descending Indianapolis Center
Tue 10:18:36 PM 40.6667 -82.3422 30° Northeast 202 232 6,100 -808 Descending Indianapolis Center
Tue 10:19:19 PM 40.7106 -82.3117 28° Northeast 222 255 5,500 -725 Descending Cleveland Center
Tue 10:20:07 PM 40.7550 -82.2797 29° Northeast 221 254 5,000 -275 Descending Cleveland Center
Tue 10:21:08 PM 40.8056 -82.2400 31° Northeast 214 246 5,000  Level Cleveland Center
Tue 10:22:09 PM 40.8542 -82.1972 34° Northeast 202 232 5,000  Level Cleveland Center
Tue 10:23:09 PM 40.9025 -82.1628 28° Northeast 204 235 5,000  Level Cleveland Center
Tue 10:24:10 PM 40.9531 -82.1256 29° Northeast 205 236 5,000  Level Cleveland Center
Tue 10:25:11 PM 41.0017 -82.0853 32° Northeast 205 236 5,000  Level Cleveland Center
Tue 10:26:11 PM 41.0564 -82.0481 27° Northeast 204 235 5,000  Level Cleveland Center
Tue 10:27:18 PM 41.1069 -82.0050 33° Northeast 205 236 5,000  Level Cleveland Center
Tue 10:28:18 PM 41.1575 -81.9647 31° Northeast 204 235 5,000  Level Cleveland Center
Tue 10:29:19 PM 41.2058 -81.9272 30° Northeast 206 237 5,000  Level Cleveland Center
Tue 10:30:20 PM 41.2500 -81.8811 38° Northeast 204 235 5,000  Level Cleveland Center
Tue 10:31:20 PM 41.2967 -81.8269 41° Northeast 202 232 5,000 -446 Level Cleveland Center
Tue 10:32:21 PM 41.3428 -81.7808 37° Northeast 222 255 4,100 -574 Descending Cleveland Center
Tue 10:33:15 PM 41.3872 -81.7372 36° Northeast 204 235 3,900 -574 Descending Cleveland Center
Tue 10:34:16 PM 41.4272 -81.6769 48° Northeast 222 255 3,000 -787 Descending Cleveland Center
Tue 10:35:17 PM 41.4736 -81.6281 38° Northeast 214 246 2,300 -496 Descending Cleveland Center
Tue 10:36:17 PM 41.5236 -81.6258 North 176 203 2,000 -645 Descending Cleveland Center
Tue 10:37:18 PM 41.5275 -81.6592 279° West 103 119 1,000 -984 Descending Cleveland Center

Login

Don't have an account? Register now (free) for customized features, flight alerts, and more!